sensor_id;sensor_type;location;lat;lon;timestamp;temperature;humidity
26745;DHT22;14342;50.960;13.880;2022-10-17T00:00:11;17.50;99.90
26745;DHT22;14342;50.960;13.880;2022-10-17T00:01:13;17.60;99.90
26745;DHT22;14342;50.960;13.880;2022-10-17T00:02:13;17.60;99.90
26745;DHT22;14342;50.960;13.880;2022-10-17T00:03:15;17.60;99.90
26745;DHT22;14342;50.960;13.880;2022-10-17T00:04:15;17.50;99.90
26745;DHT22;14342;50.960;13.880;2022-10-17T00:05:17;17.40;99.90
26745;DHT22;14342;50.960;13.880;2022-10-17T00:06:18;17.40;99.90
26745;DHT22;14342;50.960;13.880;2022-10-17T00:07:19;17.30;99.90
26745;DHT22;14342;50.960;13.880;2022-10-17T00:08:21;17.30;99.90
26745;DHT22;14342;50.960;13.880;2022-10-17T00:09:23;17.30;99.90
26745;DHT22;14342;50.960;13.880;2022-10-17T00:10:24;17.20;99.90
26745;DHT22;14342;50.960;13.880;2022-10-17T00:11:25;17.10;99.90
26745;DHT22;14342;50.960;13.880;2022-10-17T00:12:26;17.00;99.90
26745;DHT22;14342;50.960;13.880;2022-10-17T00:13:27;17.00;99.90
26745;DHT22;14342;50.960;13.880;2022-10-17T00:14:28;16.90;99.90
26745;DHT22;14342;50.960;13.880;2022-10-17T00:15:30;16.80;99.90
26745;DHT22;14342;50.960;13.880;2022-10-17T00:16:31;16.70;99.90
26745;DHT22;14342;50.960;13.880;2022-10-17T00:17:33;16.70;99.90
26745;DHT22;14342;50.960;13.880;2022-10-17T00:18:34;16.60;99.90
26745;DHT22;14342;50.960;13.880;2022-10-17T00:19:35;16.50;99.90
26745;DHT22;14342;50.960;13.880;2022-10-17T00:20:36;16.50;99.90
26745;DHT22;14342;50.960;13.880;2022-10-17T00:21:37;16.60;99.90
26745;DHT22;14342;50.960;13.880;2022-10-17T00:22:38;16.40;99.90
26745;DHT22;14342;50.960;13.880;2022-10-17T00:23:41;16.40;99.90
26745;DHT22;14342;50.960;13.880;2022-10-17T00:24:42;16.50;99.90
26745;DHT22;14342;50.960;13.880;2022-10-17T00:25:43;16.50;99.90
26745;DHT22;14342;50.960;13.880;2022-10-17T00:26:44;16.60;99.90
26745;DHT22;14342;50.960;13.880;2022-10-17T00:27:46;16.70;99.90
26745;DHT22;14342;50.960;13.880;2022-10-17T00:28:46;16.70;99.90
26745;DHT22;14342;50.960;13.880;2022-10-17T00:29:48;16.80;99.90
26745;DHT22;14342;50.960;13.880;2022-10-17T00:30:53;16.80;99.90
26745;DHT22;14342;50.960;13.880;2022-10-17T00:31:55;16.90;99.90
26745;DHT22;14342;50.960;13.880;2022-10-17T00:32:56;16.90;99.90
26745;DHT22;14342;50.960;13.880;2022-10-17T00:33:57;17.00;99.90
26745;DHT22;14342;50.960;13.880;2022-10-17T00:34:58;17.00;99.90
26745;DHT22;14342;50.960;13.880;2022-10-17T00:36:03;17.10;99.90
26745;DHT22;14342;50.960;13.880;2022-10-17T00:37:04;17.10;99.90
26745;DHT22;14342;50.960;13.880;2022-10-17T00:38:06;17.10;99.90
26745;DHT22;14342;50.960;13.880;2022-10-17T00:39:08;17.10;99.90
26745;DHT22;14342;50.960;13.880;2022-10-17T00:40:10;17.00;99.90
26745;DHT22;14342;50.960;13.880;2022-10-17T00:41:12;17.00;99.90
26745;DHT22;14342;50.960;13.880;2022-10-17T00:42:14;16.90;99.90
26745;DHT22;14342;50.960;13.880;2022-10-17T00:43:15;16.80;99.90
26745;DHT22;14342;50.960;13.880;2022-10-17T00:45:37;16.70;99.90
26745;DHT22;14342;50.960;13.880;2022-10-17T00:46:38;16.70;99.90
26745;DHT22;14342;50.960;13.880;2022-10-17T00:47:39;16.70;99.90
26745;DHT22;14342;50.960;13.880;2022-10-17T00:48:41;16.60;99.90
26745;DHT22;14342;50.960;13.880;2022-10-17T00:49:42;16.60;99.90
26745;DHT22;14342;50.960;13.880;2022-10-17T00:50:44;16.50;99.90
26745;DHT22;14342;50.960;13.880;2022-10-17T00:51:48;16.50;99.90
26745;DHT22;14342;50.960;13.880;2022-10-17T00:52:50;16.40;99.90
26745;DHT22;14342;50.960;13.880;2022-10-17T00:53:52;16.60;99.90
26745;DHT22;14342;50.960;13.880;2022-10-17T00:54:54;16.40;99.90
26745;DHT22;14342;50.960;13.880;2022-10-17T00:55:56;16.40;99.90
26745;DHT22;14342;50.960;13.880;2022-10-17T00:56:58;16.30;99.90
26745;DHT22;14342;50.960;13.880;2022-10-17T00:57:59;16.30;99.90
26745;DHT22;14342;50.960;13.880;2022-10-17T00:59:02;16.30;99.90
26745;DHT22;14342;50.960;13.880;2022-10-17T01:00:04;16.40;99.90
26745;DHT22;14342;50.960;13.880;2022-10-17T01:01:06;16.20;99.90
26745;DHT22;14342;50.960;13.880;2022-10-17T01:02:08;16.20;99.90
26745;DHT22;14342;50.960;13.880;2022-10-17T01:03:10;16.10;99.90
26745;DHT22;14342;50.960;13.880;2022-10-17T01:04:10;16.10;99.90
26745;DHT22;14342;50.960;13.880;2022-10-17T01:05:12;16.10;99.90
26745;DHT22;14342;50.960;13.880;2022-10-17T01:06:13;16.10;99.90
26745;DHT22;14342;50.960;13.880;2022-10-17T01:07:15;16.10;99.90
26745;DHT22;14342;50.960;13.880;2022-10-17T01:08:15;16.10;99.90
26745;DHT22;14342;50.960;13.880;2022-10-17T01:09:17;16.10;99.90
26745;DHT22;14342;50.960;13.880;2022-10-17T01:10:19;16.10;99.90
26745;DHT22;14342;50.960;13.880;2022-10-17T01:11:26;16.10;99.90
26745;DHT22;14342;50.960;13.880;2022-10-17T01:12:32;16.20;99.90
26745;DHT22;14342;50.960;13.880;2022-10-17T01:13:39;16.20;99.90
26745;DHT22;14342;50.960;13.880;2022-10-17T01:14:44;16.20;99.90
26745;DHT22;14342;50.960;13.880;2022-10-17T01:15:50;16.10;99.90
26745;DHT22;14342;50.960;13.880;2022-10-17T01:16:55;16.20;99.90
26745;DHT22;14342;50.960;13.880;2022-10-17T01:18:03;16.10;99.90
26745;DHT22;14342;50.960;13.880;2022-10-17T01:19:11;16.10;99.90
26745;DHT22;14342;50.960;13.880;2022-10-17T01:20:28;16.20;99.90
26745;DHT22;14342;50.960;13.880;2022-10-17T01:21:39;16.20;99.90
26745;DHT22;14342;50.960;13.880;2022-10-17T01:22:44;16.20;99.90
26745;DHT22;14342;50.960;13.880;2022-10-17T01:25:20;16.30;99.90
26745;DHT22;14342;50.960;13.880;2022-10-17T01:26:24;16.40;99.90
26745;DHT22;14342;50.960;13.880;2022-10-17T01:27:40;16.40;99.90
26745;DHT22;14342;50.960;13.880;2022-10-17T01:28:50;16.40;99.90
26745;DHT22;14342;50.960;13.880;2022-10-17T01:31:27;16.30;99.90
26745;DHT22;14342;50.960;13.880;2022-10-17T01:32:33;16.40;99.90
26745;DHT22;14342;50.960;13.880;2022-10-17T01:33:38;16.40;99.90
26745;DHT22;14342;50.960;13.880;2022-10-17T01:34:44;16.40;99.90
26745;DHT22;14342;50.960;13.880;2022-10-17T01:35:47;16.50;99.90
26745;DHT22;14342;50.960;13.880;2022-10-17T01:36:51;16.70;99.90
26745;DHT22;14342;50.960;13.880;2022-10-17T01:37:54;16.40;99.90
26745;DHT22;14342;50.960;13.880;2022-10-17T01:38:57;16.30;99.90
26745;DHT22;14342;50.960;13.880;2022-10-17T01:40:02;16.30;99.90
26745;DHT22;14342;50.960;13.880;2022-10-17T01:41:05;16.20;99.90
26745;DHT22;14342;50.960;13.880;2022-10-17T01:42:10;16.10;99.90
26745;DHT22;14342;50.960;13.880;2022-10-17T01:43:15;16.10;99.90
26745;DHT22;14342;50.960;13.880;2022-10-17T01:44:18;16.00;99.90
26745;DHT22;14342;50.960;13.880;2022-10-17T01:45:21;16.00;99.90
26745;DHT22;14342;50.960;13.880;2022-10-17T01:46:27;16.00;99.90
26745;DHT22;14342;50.960;13.880;2022-10-17T01:47:30;15.90;99.90
26745;DHT22;14342;50.960;13.880;2022-10-17T01:48:33;15.90;99.90
26745;DHT22;14342;50.960;13.880;2022-10-17T01:49:36;15.90;99.90
26745;DHT22;14342;50.960;13.880;2022-10-17T01:50:40;15.90;99.90
26745;DHT22;14342;50.960;13.880;2022-10-17T01:51:43;15.90;99.90
26745;DHT22;14342;50.960;13.880;2022-10-17T01:52:47;15.90;99.90
26745;DHT22;14342;50.960;13.880;2022-10-17T01:53:52;15.90;99.90
26745;DHT22;14342;50.960;13.880;2022-10-17T01:54:54;15.90;99.90
26745;DHT22;14342;50.960;13.880;2022-10-17T01:55:58;15.90;99.90
26745;DHT22;14342;50.960;13.880;2022-10-17T01:57:00;15.90;99.90
26745;DHT22;14342;50.960;13.880;2022-10-17T01:58:04;16.20;99.90
26745;DHT22;14342;50.960;13.880;2022-10-17T01:59:09;16.00;99.90
26745;DHT22;14342;50.960;13.880;2022-10-17T02:00:12;16.00;99.90
26745;DHT22;14342;50.960;13.880;2022-10-17T02:01:14;16.10;99.90
26745;DHT22;14342;50.960;13.880;2022-10-17T02:02:17;16.10;99.90
26745;DHT22;14342;50.960;13.880;2022-10-17T02:03:19;16.20;99.90
26745;DHT22;14342;50.960;13.880;2022-10-17T02:04:21;16.30;99.90
26745;DHT22;14342;50.960;13.880;2022-10-17T02:05:23;16.30;99.90
26745;DHT22;14342;50.960;13.880;2022-10-17T02:06:25;16.60;99.90
26745;DHT22;14342;50.960;13.880;2022-10-17T02:07:26;16.50;99.90
26745;DHT22;14342;50.960;13.880;2022-10-17T02:08:30;16.50;99.90
26745;DHT22;14342;50.960;13.880;2022-10-17T02:09:39;16.50;99.90
26745;DHT22;14342;50.960;13.880;2022-10-17T02:10:41;16.60;99.90
26745;DHT22;14342;50.960;13.880;2022-10-17T02:11:46;16.70;99.90
26745;DHT22;14342;50.960;13.880;2022-10-17T02:12:51;16.60;99.90
26745;DHT22;14342;50.960;13.880;2022-10-17T02:14:11;16.70;99.90
26745;DHT22;14342;50.960;13.880;2022-10-17T02:15:19;16.60;99.90
26745;DHT22;14342;50.960;13.880;2022-10-17T02:16:24;16.70;99.90
26745;DHT22;14342;50.960;13.880;2022-10-17T02:17:37;16.70;99.90
26745;DHT22;14342;50.960;13.880;2022-10-17T02:18:46;16.60;99.90
26745;DHT22;14342;50.960;13.880;2022-10-17T02:19:54;16.60;99.90
26745;DHT22;14342;50.960;13.880;2022-10-17T02:20:58;16.50;99.90
26745;DHT22;14342;50.960;13.880;2022-10-17T02:22:03;16.30;99.90
26745;DHT22;14342;50.960;13.880;2022-10-17T02:23:07;16.20;99.90
26745;DHT22;14342;50.960;13.880;2022-10-17T02:24:11;16.20;99.90
26745;DHT22;14342;50.960;13.880;2022-10-17T02:25:19;16.10;99.90
26745;DHT22;14342;50.960;13.880;2022-10-17T02:26:24;16.00;99.90
26745;DHT22;14342;50.960;13.880;2022-10-17T02:27:28;15.90;99.90
26745;DHT22;14342;50.960;13.880;2022-10-17T02:28:36;15.90;99.90
26745;DHT22;14342;50.960;13.880;2022-10-17T02:29:42;15.80;99.90
26745;DHT22;14342;50.960;13.880;2022-10-17T02:30:45;15.90;99.90
26745;DHT22;14342;50.960;13.880;2022-10-17T02:31:48;15.70;99.90
26745;DHT22;14342;50.960;13.880;2022-10-17T02:32:53;15.70;99.90
26745;DHT22;14342;50.960;13.880;2022-10-17T02:33:55;15.70;99.90
26745;DHT22;14342;50.960;13.880;2022-10-17T02:34:57;15.90;99.90
26745;DHT22;14342;50.960;13.880;2022-10-17T02:36:01;15.60;99.90
26745;DHT22;14342;50.960;13.880;2022-10-17T02:37:05;15.60;99.90
26745;DHT22;14342;50.960;13.880;2022-10-17T02:38:07;15.60;99.90
26745;DHT22;14342;50.960;13.880;2022-10-17T02:39:11;15.60;99.90
26745;DHT22;14342;50.960;13.880;2022-10-17T02:40:12;15.50;99.90
26745;DHT22;14342;50.960;13.880;2022-10-17T02:41:15;15.50;99.90
26745;DHT22;14342;50.960;13.880;2022-10-17T02:42:16;15.40;99.90
26745;DHT22;14342;50.960;13.880;2022-10-17T02:43:18;15.50;99.90
26745;DHT22;14342;50.960;13.880;2022-10-17T02:44:20;15.50;99.90
26745;DHT22;14342;50.960;13.880;2022-10-17T02:45:22;15.40;99.90
26745;DHT22;14342;50.960;13.880;2022-10-17T02:46:23;15.40;99.90
26745;DHT22;14342;50.960;13.880;2022-10-17T02:47:28;15.40;99.90
26745;DHT22;14342;50.960;13.880;2022-10-17T02:48:33;15.40;99.90
26745;DHT22;14342;50.960;13.880;2022-10-17T02:49:37;15.40;99.90
26745;DHT22;14342;50.960;13.880;2022-10-17T02:50:42;15.40;99.90
26745;DHT22;14342;50.960;13.880;2022-10-17T02:51:46;15.40;99.90
26745;DHT22;14342;50.960;13.880;2022-10-17T02:52:48;15.40;99.90
26745;DHT22;14342;50.960;13.880;2022-10-17T02:53:53;15.40;99.90
26745;DHT22;14342;50.960;13.880;2022-10-17T02:54:56;15.40;99.90
26745;DHT22;14342;50.960;13.880;2022-10-17T02:56:02;15.40;99.90
26745;DHT22;14342;50.960;13.880;2022-10-17T02:57:05;15.30;99.90
26745;DHT22;14342;50.960;13.880;2022-10-17T02:58:09;15.30;99.90
26745;DHT22;14342;50.960;13.880;2022-10-17T02:59:11;15.20;99.90
26745;DHT22;14342;50.960;13.880;2022-10-17T03:00:14;15.20;99.90
26745;DHT22;14342;50.960;13.880;2022-10-17T03:01:16;15.30;99.90
26745;DHT22;14342;50.960;13.880;2022-10-17T03:02:18;15.20;99.90
26745;DHT22;14342;50.960;13.880;2022-10-17T03:03:19;15.20;99.90
26745;DHT22;14342;50.960;13.880;2022-10-17T03:04:23;15.30;99.90
26745;DHT22;14342;50.960;13.880;2022-10-17T03:05:24;15.40;99.90
26745;DHT22;14342;50.960;13.880;2022-10-17T03:06:26;15.40;99.90
26745;DHT22;14342;50.960;13.880;2022-10-17T03:07:26;15.40;99.90
26745;DHT22;14342;50.960;13.880;2022-10-17T03:08:28;15.40;99.90
26745;DHT22;14342;50.960;13.880;2022-10-17T03:09:28;15.40;99.90
26745;DHT22;14342;50.960;13.880;2022-10-17T03:10:30;15.40;99.90
26745;DHT22;14342;50.960;13.880;2022-10-17T03:11:31;15.40;99.90
26745;DHT22;14342;50.960;13.880;2022-10-17T03:12:32;15.40;99.90
26745;DHT22;14342;50.960;13.880;2022-10-17T03:13:33;15.40;99.90
26745;DHT22;14342;50.960;13.880;2022-10-17T03:14:34;15.40;99.90
26745;DHT22;14342;50.960;13.880;2022-10-17T03:15:35;15.60;99.90
26745;DHT22;14342;50.960;13.880;2022-10-17T03:16:36;15.40;99.90
26745;DHT22;14342;50.960;13.880;2022-10-17T03:17:38;15.50;99.90
26745;DHT22;14342;50.960;13.880;2022-10-17T03:18:39;15.60;99.90
26745;DHT22;14342;50.960;13.880;2022-10-17T03:19:42;15.60;99.90
26745;DHT22;14342;50.960;13.880;2022-10-17T03:20:42;15.90;99.90
26745;DHT22;14342;50.960;13.880;2022-10-17T03:21:44;15.70;99.90
26745;DHT22;14342;50.960;13.880;2022-10-17T03:22:44;15.90;99.90
26745;DHT22;14342;50.960;13.880;2022-10-17T03:23:46;15.60;99.90
26745;DHT22;14342;50.960;13.880;2022-10-17T03:24:47;15.80;99.90
26745;DHT22;14342;50.960;13.880;2022-10-17T03:25:48;15.60;99.90
26745;DHT22;14342;50.960;13.880;2022-10-17T03:26:50;15.60;99.90
26745;DHT22;14342;50.960;13.880;2022-10-17T03:27:50;15.60;99.90
26745;DHT22;14342;50.960;13.880;2022-10-17T03:28:52;15.60;99.90
26745;DHT22;14342;50.960;13.880;2022-10-17T03:29:53;15.70;99.90
26745;DHT22;14342;50.960;13.880;2022-10-17T03:30:54;15.60;99.90
26745;DHT22;14342;50.960;13.880;2022-10-17T03:31:55;15.60;99.90
26745;DHT22;14342;50.960;13.880;2022-10-17T03:32:56;15.60;99.90
26745;DHT22;14342;50.960;13.880;2022-10-17T03:33:57;15.60;99.90
26745;DHT22;14342;50.960;13.880;2022-10-17T03:35:00;15.60;99.90
26745;DHT22;14342;50.960;13.880;2022-10-17T03:36:04;15.60;99.90
26745;DHT22;14342;50.960;13.880;2022-10-17T03:37:05;15.60;99.90
26745;DHT22;14342;50.960;13.880;2022-10-17T03:38:07;15.70;99.90
26745;DHT22;14342;50.960;13.880;2022-10-17T03:39:07;15.60;99.90
26745;DHT22;14342;50.960;13.880;2022-10-17T03:40:09;15.60;99.90
26745;DHT22;14342;50.960;13.880;2022-10-17T03:41:10;15.60;99.90
26745;DHT22;14342;50.960;13.880;2022-10-17T03:42:12;15.60;99.90
26745;DHT22;14342;50.960;13.880;2022-10-17T03:43:13;15.60;99.90
26745;DHT22;14342;50.960;13.880;2022-10-17T03:44:14;15.70;99.90
26745;DHT22;14342;50.960;13.880;2022-10-17T03:45:15;15.80;99.90
26745;DHT22;14342;50.960;13.880;2022-10-17T03:46:16;15.90;99.90
26745;DHT22;14342;50.960;13.880;2022-10-17T03:47:17;15.70;99.90
26745;DHT22;14342;50.960;13.880;2022-10-17T03:48:19;15.80;99.90
26745;DHT22;14342;50.960;13.880;2022-10-17T03:49:19;16.00;99.90
26745;DHT22;14342;50.960;13.880;2022-10-17T03:50:22;16.00;99.90
26745;DHT22;14342;50.960;13.880;2022-10-17T03:51:23;15.70;99.90
26745;DHT22;14342;50.960;13.880;2022-10-17T03:52:24;15.60;99.90
26745;DHT22;14342;50.960;13.880;2022-10-17T03:53:25;15.70;99.90
26745;DHT22;14342;50.960;13.880;2022-10-17T03:54:27;15.70;99.90
26745;DHT22;14342;50.960;13.880;2022-10-17T03:55:27;15.70;99.90
26745;DHT22;14342;50.960;13.880;2022-10-17T03:56:29;15.70;99.90
26745;DHT22;14342;50.960;13.880;2022-10-17T03:57:30;15.90;99.90
26745;DHT22;14342;50.960;13.880;2022-10-17T03:58:31;15.80;99.90
26745;DHT22;14342;50.960;13.880;2022-10-17T03:59:33;15.70;99.90
26745;DHT22;14342;50.960;13.880;2022-10-17T04:00:35;15.70;99.90
26745;DHT22;14342;50.960;13.880;2022-10-17T04:01:35;15.70;99.90
26745;DHT22;14342;50.960;13.880;2022-10-17T04:02:37;15.70;99.90
26745;DHT22;14342;50.960;13.880;2022-10-17T04:03:38;15.60;99.90
26745;DHT22;14342;50.960;13.880;2022-10-17T04:04:39;15.60;99.90
26745;DHT22;14342;50.960;13.880;2022-10-17T04:05:41;15.60;99.90
26745;DHT22;14342;50.960;13.880;2022-10-17T04:06:43;15.60;99.90
26745;DHT22;14342;50.960;13.880;2022-10-17T04:07:43;15.70;99.90
26745;DHT22;14342;50.960;13.880;2022-10-17T04:08:45;15.60;99.90
26745;DHT22;14342;50.960;13.880;2022-10-17T04:09:46;15.60;99.90
26745;DHT22;14342;50.960;13.880;2022-10-17T04:10:47;15.70;99.90
26745;DHT22;14342;50.960;13.880;2022-10-17T04:11:48;15.60;99.90
26745;DHT22;14342;50.960;13.880;2022-10-17T04:12:50;15.60;99.90
26745;DHT22;14342;50.960;13.880;2022-10-17T04:13:51;15.60;99.90
26745;DHT22;14342;50.960;13.880;2022-10-17T04:14:53;15.60;99.90
26745;DHT22;14342;50.960;13.880;2022-10-17T04:15:54;15.60;99.90
26745;DHT22;14342;50.960;13.880;2022-10-17T04:16:55;15.60;99.90
26745;DHT22;14342;50.960;13.880;2022-10-17T04:17:56;15.70;99.90
26745;DHT22;14342;50.960;13.880;2022-10-17T04:18:58;15.80;99.90
26745;DHT22;14342;50.960;13.880;2022-10-17T04:19:59;15.60;99.90
26745;DHT22;14342;50.960;13.880;2022-10-17T04:21:02;15.70;99.90
26745;DHT22;14342;50.960;13.880;2022-10-17T04:22:03;15.70;99.90
26745;DHT22;14342;50.960;13.880;2022-10-17T04:23:07;15.70;99.90
26745;DHT22;14342;50.960;13.880;2022-10-17T04:24:09;15.60;99.90
26745;DHT22;14342;50.960;13.880;2022-10-17T04:25:11;15.70;99.90
26745;DHT22;14342;50.960;13.880;2022-10-17T04:26:14;15.70;99.90
26745;DHT22;14342;50.960;13.880;2022-10-17T04:27:15;15.70;99.90
26745;DHT22;14342;50.960;13.880;2022-10-17T04:28:16;15.70;99.90
26745;DHT22;14342;50.960;13.880;2022-10-17T04:29:17;15.60;99.90
26745;DHT22;14342;50.960;13.880;2022-10-17T04:30:18;15.60;99.90
26745;DHT22;14342;50.960;13.880;2022-10-17T04:31:20;15.70;99.90
26745;DHT22;14342;50.960;13.880;2022-10-17T04:32:20;15.70;99.90
26745;DHT22;14342;50.960;13.880;2022-10-17T04:33:22;15.80;99.90
26745;DHT22;14342;50.960;13.880;2022-10-17T04:34:23;15.80;99.90
26745;DHT22;14342;50.960;13.880;2022-10-17T04:35:24;15.70;99.90
26745;DHT22;14342;50.960;13.880;2022-10-17T04:36:26;15.70;99.90
26745;DHT22;14342;50.960;13.880;2022-10-17T04:37:28;15.70;99.90
26745;DHT22;14342;50.960;13.880;2022-10-17T04:38:29;15.60;99.90
26745;DHT22;14342;50.960;13.880;2022-10-17T04:39:31;15.80;99.90
26745;DHT22;14342;50.960;13.880;2022-10-17T04:40:32;15.70;99.90
26745;DHT22;14342;50.960;13.880;2022-10-17T04:41:33;15.70;99.90
26745;DHT22;14342;50.960;13.880;2022-10-17T04:42:34;15.70;99.90
26745;DHT22;14342;50.960;13.880;2022-10-17T04:43:35;15.80;99.90
26745;DHT22;14342;50.960;13.880;2022-10-17T04:44:38;16.10;99.90
26745;DHT22;14342;50.960;13.880;2022-10-17T04:45:38;15.80;99.90
26745;DHT22;14342;50.960;13.880;2022-10-17T04:46:40;15.80;99.90
26745;DHT22;14342;50.960;13.880;2022-10-17T04:47:40;16.00;99.90
26745;DHT22;14342;50.960;13.880;2022-10-17T04:48:42;15.70;99.90
26745;DHT22;14342;50.960;13.880;2022-10-17T04:49:43;15.70;99.90
26745;DHT22;14342;50.960;13.880;2022-10-17T04:50:51;15.60;99.90
26745;DHT22;14342;50.960;13.880;2022-10-17T04:51:53;15.60;99.90
26745;DHT22;14342;50.960;13.880;2022-10-17T04:52:55;15.50;99.90
26745;DHT22;14342;50.960;13.880;2022-10-17T04:53:56;15.50;99.90
26745;DHT22;14342;50.960;13.880;2022-10-17T04:54:57;15.50;99.90
26745;DHT22;14342;50.960;13.880;2022-10-17T04:55:58;15.50;99.90
26745;DHT22;14342;50.960;13.880;2022-10-17T04:57:00;15.50;99.90
26745;DHT22;14342;50.960;13.880;2022-10-17T04:58:00;15.80;99.90
26745;DHT22;14342;50.960;13.880;2022-10-17T04:59:02;15.60;99.90
26745;DHT22;14342;50.960;13.880;2022-10-17T05:00:04;15.70;99.90
26745;DHT22;14342;50.960;13.880;2022-10-17T05:01:05;15.70;99.90
26745;DHT22;14342;50.960;13.880;2022-10-17T05:02:06;15.70;99.90
26745;DHT22;14342;50.960;13.880;2022-10-17T05:03:08;15.70;99.90
26745;DHT22;14342;50.960;13.880;2022-10-17T05:04:09;15.80;99.90
26745;DHT22;14342;50.960;13.880;2022-10-17T05:05:10;15.80;99.90
26745;DHT22;14342;50.960;13.880;2022-10-17T05:06:11;15.80;99.90
26745;DHT22;14342;50.960;13.880;2022-10-17T05:07:15;15.90;99.90
26745;DHT22;14342;50.960;13.880;2022-10-17T05:08:15;16.00;99.90
26745;DHT22;14342;50.960;13.880;2022-10-17T05:09:17;15.70;99.90
26745;DHT22;14342;50.960;13.880;2022-10-17T05:10:18;15.60;99.90
26745;DHT22;14342;50.960;13.880;2022-10-17T05:11:20;15.60;99.90
26745;DHT22;14342;50.960;13.880;2022-10-17T05:12:21;15.50;99.90
26745;DHT22;14342;50.960;13.880;2022-10-17T05:13:23;15.40;99.90
26745;DHT22;14342;50.960;13.880;2022-10-17T05:14:23;15.30;99.90
26745;DHT22;14342;50.960;13.880;2022-10-17T05:15:25;15.20;99.90
26745;DHT22;14342;50.960;13.880;2022-10-17T05:16:26;15.20;99.90
26745;DHT22;14342;50.960;13.880;2022-10-17T05:17:28;15.20;99.90
26745;DHT22;14342;50.960;13.880;2022-10-17T05:18:28;15.10;99.90
26745;DHT22;14342;50.960;13.880;2022-10-17T05:19:30;15.10;99.90
26745;DHT22;14342;50.960;13.880;2022-10-17T05:20:31;15.10;99.90
26745;DHT22;14342;50.960;13.880;2022-10-17T05:21:32;15.00;99.90
26745;DHT22;14342;50.960;13.880;2022-10-17T05:22:37;15.10;99.90
26745;DHT22;14342;50.960;13.880;2022-10-17T05:23:38;15.10;99.90
26745;DHT22;14342;50.960;13.880;2022-10-17T05:24:40;15.20;99.90
26745;DHT22;14342;50.960;13.880;2022-10-17T05:25:41;15.00;99.90
26745;DHT22;14342;50.960;13.880;2022-10-17T05:26:42;15.10;99.90
26745;DHT22;14342;50.960;13.880;2022-10-17T05:27:43;15.30;99.90
26745;DHT22;14342;50.960;13.880;2022-10-17T05:28:44;15.10;99.90
26745;DHT22;14342;50.960;13.880;2022-10-17T05:29:45;15.20;99.90
26745;DHT22;14342;50.960;13.880;2022-10-17T05:30:46;15.30;99.90
26745;DHT22;14342;50.960;13.880;2022-10-17T05:31:47;15.10;99.90
26745;DHT22;14342;50.960;13.880;2022-10-17T05:32:50;15.20;99.90
26745;DHT22;14342;50.960;13.880;2022-10-17T05:33:51;15.50;99.90
26745;DHT22;14342;50.960;13.880;2022-10-17T05:34:53;15.20;99.90
26745;DHT22;14342;50.960;13.880;2022-10-17T05:35:53;15.10;99.90
26745;DHT22;14342;50.960;13.880;2022-10-17T05:36:56;15.10;99.90
26745;DHT22;14342;50.960;13.880;2022-10-17T05:37:58;15.20;99.90
26745;DHT22;14342;50.960;13.880;2022-10-17T05:39:00;15.20;99.90
26745;DHT22;14342;50.960;13.880;2022-10-17T05:40:00;15.20;99.90
26745;DHT22;14342;50.960;13.880;2022-10-17T05:41:03;15.20;99.90
26745;DHT22;14342;50.960;13.880;2022-10-17T05:42:04;15.30;99.90
26745;DHT22;14342;50.960;13.880;2022-10-17T05:43:07;15.30;99.90
26745;DHT22;14342;50.960;13.880;2022-10-17T05:44:08;15.40;99.90
26745;DHT22;14342;50.960;13.880;2022-10-17T05:45:09;15.50;99.90
26745;DHT22;14342;50.960;13.880;2022-10-17T05:46:10;15.50;99.90
26745;DHT22;14342;50.960;13.880;2022-10-17T05:47:12;15.50;99.90
26745;DHT22;14342;50.960;13.880;2022-10-17T05:48:13;15.60;99.90
26745;DHT22;14342;50.960;13.880;2022-10-17T05:49:14;15.60;99.90
26745;DHT22;14342;50.960;13.880;2022-10-17T05:50:15;15.60;99.90
26745;DHT22;14342;50.960;13.880;2022-10-17T05:51:17;15.70;99.90
26745;DHT22;14342;50.960;13.880;2022-10-17T05:52:18;15.70;99.90
26745;DHT22;14342;50.960;13.880;2022-10-17T05:53:20;15.70;99.90
26745;DHT22;14342;50.960;13.880;2022-10-17T05:54:22;15.70;99.90
26745;DHT22;14342;50.960;13.880;2022-10-17T05:55:22;15.70;99.90
26745;DHT22;14342;50.960;13.880;2022-10-17T05:56:24;15.70;99.90
26745;DHT22;14342;50.960;13.880;2022-10-17T05:57:25;15.60;99.90
26745;DHT22;14342;50.960;13.880;2022-10-17T05:58:26;15.70;99.90
26745;DHT22;14342;50.960;13.880;2022-10-17T05:59:27;15.60;99.90
26745;DHT22;14342;50.960;13.880;2022-10-17T06:00:29;15.60;99.90
26745;DHT22;14342;50.960;13.880;2022-10-17T06:01:30;15.60;99.90
26745;DHT22;14342;50.960;13.880;2022-10-17T06:02:31;15.40;99.90
26745;DHT22;14342;50.960;13.880;2022-10-17T06:03:32;15.40;99.90
26745;DHT22;14342;50.960;13.880;2022-10-17T06:04:33;15.50;99.90
26745;DHT22;14342;50.960;13.880;2022-10-17T06:05:34;15.60;99.90
26745;DHT22;14342;50.960;13.880;2022-10-17T06:06:36;15.60;99.90
26745;DHT22;14342;50.960;13.880;2022-10-17T06:07:37;15.60;99.90
26745;DHT22;14342;50.960;13.880;2022-10-17T06:08:39;15.70;99.90
26745;DHT22;14342;50.960;13.880;2022-10-17T06:09:40;15.80;99.90
26745;DHT22;14342;50.960;13.880;2022-10-17T06:10:42;15.90;99.90
26745;DHT22;14342;50.960;13.880;2022-10-17T06:11:43;15.90;99.90
26745;DHT22;14342;50.960;13.880;2022-10-17T06:12:44;15.90;99.90
26745;DHT22;14342;50.960;13.880;2022-10-17T06:13:45;16.20;99.90
26745;DHT22;14342;50.960;13.880;2022-10-17T06:14:46;16.00;99.90
26745;DHT22;14342;50.960;13.880;2022-10-17T06:15:47;16.00;99.90
26745;DHT22;14342;50.960;13.880;2022-10-17T06:16:48;16.00;99.90
26745;DHT22;14342;50.960;13.880;2022-10-17T06:17:49;15.90;99.90
26745;DHT22;14342;50.960;13.880;2022-10-17T06:18:51;15.90;99.90
26745;DHT22;14342;50.960;13.880;2022-10-17T06:19:52;16.00;99.90
26745;DHT22;14342;50.960;13.880;2022-10-17T06:20:53;15.80;99.90
26745;DHT22;14342;50.960;13.880;2022-10-17T06:21:54;15.80;99.90
26745;DHT22;14342;50.960;13.880;2022-10-17T06:22:55;15.90;99.90
26745;DHT22;14342;50.960;13.880;2022-10-17T06:23:58;15.90;99.90
26745;DHT22;14342;50.960;13.880;2022-10-17T06:24:59;16.00;99.90
26745;DHT22;14342;50.960;13.880;2022-10-17T06:26:00;16.00;99.90
26745;DHT22;14342;50.960;13.880;2022-10-17T06:27:01;16.00;99.90
26745;DHT22;14342;50.960;13.880;2022-10-17T06:28:03;16.00;99.90
26745;DHT22;14342;50.960;13.880;2022-10-17T06:29:05;16.00;99.90
26745;DHT22;14342;50.960;13.880;2022-10-17T06:30:06;16.00;99.90
26745;DHT22;14342;50.960;13.880;2022-10-17T06:31:11;16.00;99.90